Time;durP1;ratioP1;P1;durP2;ratioP2;P2;SDS_P1;SDS_P2;PMS_P1;PMS_P2;Temp;Humidity;BMP_temperature;BMP_pressure;BME280_temperature;BME280_humidity;BME280_pressure;Samples;Min_cycle;Max_cycle;Signal;HPM_P1;HPM_P2
2022/06/22 00:02:13;;;;;;;2.58;1.40;;;;;;;19.73;58.16;98100.06;4118251;28;20663;-62
2022/06/22 00:04:18;;;;;;;2.85;1.05;;;;;;;19.70;58.22;98102.63;4136527;28;20291;-62
2022/06/22 00:06:29;;;;;;;2.88;1.70;;;;;;;19.68;58.25;98102.13;4118965;28;20236;-62
2022/06/22 00:08:35;;;;;;;2.45;1.17;;;;;;;19.64;58.22;98101.13;4136293;28;20225;-62
2022/06/22 00:10:50;;;;;;;4.00;1.50;;;;;;;19.59;58.38;98095.72;4116277;28;20655;-62
2022/06/22 00:12:53;;;;;;;1.85;1.63;;;;;;;19.56;58.47;98082.44;4124103;28;20214;-62
2022/06/22 00:14:57;;;;;;;1.52;1.40;;;;;;;19.57;58.60;98089.66;4127959;28;20280;-61
2022/06/22 00:16:59;;;;;;;2.95;1.67;;;;;;;19.56;58.50;98082.44;4126723;28;20649;-61
2022/06/22 00:19:11;;;;;;;1.98;1.33;;;;;;;19.53;58.79;98088.66;4126411;28;20253;-61
2022/06/22 00:21:21;;;;;;;1.85;1.52;;;;;;;19.50;58.81;98094.81;4116362;28;20950;-61
2022/06/22 00:23:34;;;;;;;2.13;1.40;;;;;;;19.47;58.68;98087.16;4121941;28;20208;-61
2022/06/22 00:25:40;;;;;;;3.15;1.15;;;;;;;19.44;58.93;98080.28;4116550;28;20762;-61
2022/06/22 00:27:42;;;;;;;2.03;1.55;;;;;;;19.42;58.81;98081.72;4134998;28;20272;-61
2022/06/22 00:29:46;;;;;;;1.98;1.67;;;;;;;19.38;58.92;98072.41;4105836;28;20215;-61
2022/06/22 00:31:47;;;;;;;6.50;1.38;;;;;;;19.38;58.92;98066.88;4123954;28;20213;-61
2022/06/22 00:34:11;;;;;;;1.45;1.25;;;;;;;19.34;58.91;98052.81;4136380;28;20267;-61
2022/06/22 00:36:17;;;;;;;8.52;1.65;;;;;;;19.29;58.65;98052.94;4139582;28;20314;-61
2022/06/22 00:38:31;;;;;;;1.60;1.38;;;;;;;19.24;58.70;98046.69;4105545;28;20215;-61
2022/06/22 00:40:34;;;;;;;1.65;1.55;;;;;;;19.25;58.77;98042.78;4122433;28;20336;-61
2022/06/22 00:42:42;;;;;;;5.22;1.77;;;;;;;19.20;58.70;98032.66;4137724;28;20217;-61
2022/06/22 00:44:46;;;;;;;10.05;1.60;;;;;;;19.17;58.76;98046.31;4138207;28;20588;-61
2022/06/22 00:46:58;;;;;;;2.35;1.60;;;;;;;19.14;58.78;98052.47;4119482;28;20277;-61
2022/06/22 00:49:07;;;;;;;2.15;1.50;;;;;;;19.22;58.86;98051.72;4123289;28;20198;-61
2022/06/22 00:51:14;;;;;;;4.72;1.42;;;;;;;19.11;58.93;98055.88;4120555;28;20206;-61
2022/06/22 00:53:20;;;;;;;1.98;1.65;;;;;;;19.11;59.32;98053.09;4139824;28;20679;-61
2022/06/22 00:55:34;;;;;;;3.30;1.30;;;;;;;19.09;59.07;98055.34;4125802;28;20583;-61
2022/06/22 00:57:40;;;;;;;1.65;1.30;;;;;;;19.05;59.27;98051.59;4137937;28;20279;-61
2022/06/22 00:59:57;;;;;;;2.67;1.75;;;;;;;19.04;59.49;98055.50;4118556;28;20297;-61
2022/06/22 01:02:26;;;;;;;3.08;1.67;;;;;;;19.00;59.51;98051.72;4135915;28;20295;-61
2022/06/22 01:04:35;;;;;;;1.88;1.30;;;;;;;18.98;59.40;98065.09;4123909;28;20231;-61
2022/06/22 01:06:44;;;;;;;2.05;1.48;;;;;;;18.93;59.33;98073.53;4124601;28;20201;-61
2022/06/22 01:08:51;;;;;;;7.55;1.83;;;;;;;18.88;59.93;98084.72;4126548;28;20588;-61
2022/06/22 01:11:00;;;;;;;1.30;1.20;;;;;;;18.85;59.86;98085.38;4124580;28;20222;-61
2022/06/22 01:13:27;;;;;;;1.88;1.33;;;;;;;18.87;59.67;98091.41;4139844;28;20213;-61
2022/06/22 01:15:34;;;;;;;1.55;1.15;;;;;;;18.83;59.94;98090.41;4122011;28;20237;-61
2022/06/22 01:18:16;;;;;;;1.98;1.60;;;;;;;18.88;59.86;98098.59;4136283;28;20683;-61
2022/06/22 01:20:24;;;;;;;2.42;1.80;;;;;;;18.89;59.86;98092.75;4091213;28;20674;-61
2022/06/22 01:22:34;;;;;;;3.22;1.50;;;;;;;18.89;59.88;98078.06;4119928;28;20200;-61
2022/06/22 01:25:03;;;;;;;1.60;1.42;;;;;;;18.84;59.99;98069.88;4137123;28;20355;-61
2022/06/22 01:27:31;;;;;;;3.58;1.95;;;;;;;19.01;60.07;98064.44;4100213;28;20210;-61
2022/06/22 01:29:33;;;;;;;2.55;1.65;;;;;;;18.78;60.55;98065.59;4124912;28;20208;-61
2022/06/22 01:31:35;;;;;;;1.77;1.48;;;;;;;18.71;60.62;98065.19;4126214;28;20210;-61
2022/06/22 01:33:47;;;;;;;2.25;1.67;;;;;;;18.71;60.61;98060.47;4105065;28;20207;-61
2022/06/22 01:35:53;;;;;;;5.25;1.75;;;;;;;18.64;61.01;98060.06;4126643;28;20269;-61
2022/06/22 01:37:55;;;;;;;2.28;2.08;;;;;;;18.56;61.18;98046.13;4110474;28;20200;-61
2022/06/22 01:40:05;;;;;;;1.60;1.50;;;;;;;18.45;61.61;98044.75;4139268;28;20638;-61
2022/06/22 01:42:31;;;;;;;2.13;1.67;;;;;;;18.50;61.23;98047.38;4122380;28;20210;-61
2022/06/22 01:44:38;;;;;;;2.22;1.73;;;;;;;18.50;61.34;98037.13;4125200;28;20230;-61
2022/06/22 01:47:08;;;;;;;2.92;1.80;;;;;;;18.28;61.40;98019.59;4139136;28;20210;-60
2022/06/22 01:49:25;;;;;;;2.67;1.80;;;;;;;18.20;61.81;98012.03;4125233;28;20210;-61
2022/06/22 01:51:31;;;;;;;3.22;2.33;;;;;;;18.05;61.69;97998.53;4120500;28;20266;-61
2022/06/22 01:53:34;;;;;;;2.08;1.40;;;;;;;18.07;61.71;98001.81;4138930;28;20209;-61
2022/06/22 01:55:49;;;;;;;2.80;1.55;;;;;;;18.11;61.64;97997.28;4123245;28;20620;-61
2022/06/22 01:57:59;;;;;;;3.35;1.67;;;;;;;18.19;61.74;98007.63;4125091;28;20602;-61
2022/06/22 02:00:15;;;;;;;3.55;1.50;;;;;;;17.96;62.31;98017.00;4140410;28;20213;-61
2022/06/22 02:02:22;;;;;;;2.20;2.00;;;;;;;17.79;62.68;98014.84;4136427;28;20214;-61
2022/06/22 02:04:36;;;;;;;2.63;1.73;;;;;;;17.84;62.45;98002.88;4137294;28;20303;-61
2022/06/22 02:09:10;;;;;;;2.55;1.60;;;;;;;18.02;62.09;97990.84;4139555;28;20226;-60
2022/06/22 02:11:19;;;;;;;12.85;2.10;;;;;;;18.10;62.02;97990.09;4127687;28;20210;-61
2022/06/22 02:13:28;;;;;;;4.47;1.70;;;;;;;18.13;61.89;97992.25;4141029;28;20201;-60
2022/06/22 02:15:38;;;;;;;2.40;1.80;;;;;;;18.19;61.60;97991.00;4142341;28;20263;-61
2022/06/22 02:17:41;;;;;;;2.00;1.40;;;;;;;18.19;61.38;97986.28;4127779;28;20210;-61
2022/06/22 02:19:43;;;;;;;1.63;1.40;;;;;;;18.22;61.23;97984.84;4142035;28;20213;-60
2022/06/22 02:21:50;;;;;;;1.60;1.48;;;;;;;18.24;61.16;97982.59;4128167;28;20210;-61
2022/06/22 02:24:13;;;;;;;1.50;1.40;;;;;;;18.25;61.05;97992.53;4138142;28;20221;-60
2022/06/22 02:26:20;;;;;;;2.22;1.48;;;;;;;18.26;61.48;97996.94;4109803;28;20207;-61
2022/06/22 02:28:22;;;;;;;1.60;1.10;;;;;;;18.27;61.53;98013.25;4126490;28;20272;-61
2022/06/22 02:30:24;;;;;;;2.90;1.95;;;;;;;18.30;61.48;98020.09;4126522;28;20210;-60
2022/06/22 02:32:35;;;;;;;3.10;1.58;;;;;;;18.32;61.59;98012.34;4139957;28;20214;-61
2022/06/22 02:34:39;;;;;;;1.67;1.50;;;;;;;18.33;61.82;98016.75;4125638;28;20262;-61
2022/06/22 02:36:47;;;;;;;1.50;1.40;;;;;;;18.36;61.96;98024.44;4124572;28;20217;-60
2022/06/22 02:38:49;;;;;;;2.67;1.90;;;;;;;18.29;61.98;98024.00;4123712;28;20233;-61
2022/06/22 02:45:34;;;;;;;2.03;1.83;;;;;;;18.26;61.81;98035.72;4140908;28;20221;-61
2022/06/22 02:47:42;;;;;;;4.13;1.83;;;;;;;18.26;62.09;98027.41;4126892;28;20261;-61
2022/06/22 02:50:02;;;;;;;2.03;1.63;;;;;;;18.27;62.00;98026.28;4140998;28;20201;-61
2022/06/22 02:52:04;;;;;;;8.80;1.67;;;;;;;18.25;61.87;98023.00;4126862;28;20210;-61
2022/06/22 02:54:15;;;;;;;2.35;2.13;;;;;;;18.21;62.47;98021.97;4123216;28;20803;-61
2022/06/22 02:56:30;;;;;;;1.70;1.52;;;;;;;18.24;62.46;98015.84;4135634;28;20209;-61
2022/06/22 02:58:35;;;;;;;1.50;1.40;;;;;;;18.20;62.35;98004.56;4121483;28;20262;-61
2022/06/22 03:00:40;;;;;;;3.35;1.63;;;;;;;18.14;62.83;98007.75;4137493;28;20232;-61
2022/06/22 03:02:42;;;;;;;2.72;2.13;;;;;;;17.91;63.93;98000.50;4136846;28;20240;-61
2022/06/22 03:04:45;;;;;;;3.38;2.05;;;;;;;17.67;64.51;98009.03;4124908;28;20229;-61
2022/06/22 03:06:50;;;;;;;2.50;1.60;;;;;;;17.73;64.02;98007.78;4136423;28;20259;-61
2022/06/22 03:08:52;;;;;;;2.70;2.17;;;;;;;17.78;63.95;98006.88;4121968;28;20272;-61
2022/06/22 03:11:00;;;;;;;2.38;1.95;;;;;;;17.83;63.83;97998.44;4132329;28;20221;-61
2022/06/22 03:13:02;;;;;;;2.05;1.85;;;;;;;17.86;63.72;97995.06;4121234;28;20213;-61
2022/06/22 03:15:07;;;;;;;2.03;1.85;;;;;;;17.80;63.95;97999.06;4121149;28;20337;-61
2022/06/22 03:17:14;;;;;;;3.85;1.98;;;;;;;17.77;63.91;97994.13;4125505;28;20221;-61
2022/06/22 03:19:25;;;;;;;2.70;2.03;;;;;;;17.59;64.28;97998.66;4137855;28;20232;-61
2022/06/22 03:21:27;;;;;;;3.63;2.17;;;;;;;17.61;64.20;98004.72;4138658;28;20946;-60
2022/06/22 03:23:29;;;;;;;2.28;2.08;;;;;;;17.69;64.03;98012.31;4138100;28;20205;-61
2022/06/22 03:25:40;;;;;;;2.97;2.13;;;;;;;17.77;63.87;98016.28;4128277;28;20741;-61
2022/06/22 03:27:44;;;;;;;2.20;1.90;;;;;;;17.47;65.06;98030.75;4126900;28;20238;-61
2022/06/22 03:29:58;;;;;;;5.15;2.47;;;;;;;17.08;66.34;98035.06;4140655;28;20332;-61
2022/06/22 03:32:06;;;;;;;2.60;2.40;;;;;;;16.98;66.44;98036.06;4132881;28;20241;-61
2022/06/22 03:34:29;;;;;;;2.50;2.30;;;;;;;16.85;66.90;98031.31;4137655;28;20205;-60
2022/06/22 03:36:43;;;;;;;3.28;2.40;;;;;;;16.85;66.92;98042.34;4116515;28;20215;-61
2022/06/22 03:38:54;;;;;;;3.50;2.63;;;;;;;16.87;66.78;98045.63;4107807;28;20320;-61
2022/06/22 03:40:58;;;;;;;2.28;2.08;;;;;;;16.93;66.74;98049.97;4136970;28;20260;-61
2022/06/22 03:43:13;;;;;;;3.00;2.83;;;;;;;17.08;66.05;98044.16;4136399;28;20556;-61
2022/06/22 03:45:39;;;;;;;2.40;2.20;;;;;;;17.22;65.49;98043.06;4138069;28;20295;-61
2022/06/22 03:47:55;;;;;;;2.17;1.80;;;;;;;17.37;65.25;98050.28;4137211;28;20237;-61
2022/06/22 03:50:06;;;;;;;2.88;2.17;;;;;;;17.47;65.32;98055.66;4135940;28;20218;-61
2022/06/22 03:52:18;;;;;;;2.47;2.28;;;;;;;17.55;65.48;98053.00;4135282;28;20249;-61
2022/06/22 03:54:43;;;;;;;2.10;1.83;;;;;;;17.57;65.07;98058.19;4138388;28;20232;-60
2022/06/22 03:56:49;;;;;;;2.13;1.92;;;;;;;17.61;64.89;98068.38;4125479;28;20376;-60
2022/06/22 03:58:52;;;;;;;2.58;2.10;;;;;;;17.66;64.69;98065.50;4119800;28;20258;-61
2022/06/22 04:00:54;;;;;;;2.42;2.15;;;;;;;17.70;64.66;98061.00;4125724;28;20210;-61
2022/06/22 04:02:56;;;;;;;2.80;2.40;;;;;;;17.70;64.67;98066.53;4121625;28;20644;-61
2022/06/22 04:04:58;;;;;;;3.58;2.22;;;;;;;17.72;64.63;98064.25;4123939;28;20230;-61
2022/06/22 04:07:00;;;;;;;2.65;2.00;;;;;;;17.73;64.57;98065.91;4122957;28;20253;-60
2022/06/22 04:09:09;;;;;;;3.58;2.40;;;;;;;17.76;64.25;98064.47;4125388;28;20230;-61
2022/06/22 04:11:25;;;;;;;3.03;1.52;;;;;;;17.72;63.89;98058.72;4109855;28;20289;-60
2022/06/22 04:13:41;;;;;;;2.83;2.17;;;;;;;17.60;63.66;98052.06;4107631;28;20230;-61
2022/06/22 04:16:10;;;;;;;1.55;1.33;;;;;;;17.62;63.69;98058.13;4102187;28;20227;-61
2022/06/22 04:18:16;;;;;;;2.65;1.70;;;;;;;17.65;63.50;98054.75;4132554;28;21925;-61
2022/06/22 04:20:25;;;;;;;3.90;2.05;;;;;;;17.71;63.70;98045.22;4135439;28;20758;-61
2022/06/22 04:22:28;;;;;;;2.17;1.80;;;;;;;17.66;63.97;98042.53;4135988;28;20209;-61
2022/06/22 04:24:45;;;;;;;4.97;2.17;;;;;;;17.50;63.98;98042.03;4110276;28;20254;-60
2022/06/22 04:27:13;;;;;;;2.95;1.85;;;;;;;17.56;64.15;98042.72;4139596;28;20221;-61
2022/06/22 04:29:27;;;;;;;3.08;2.35;;;;;;;17.61;63.90;98039.88;4123254;28;20221;-61
2022/06/22 04:31:34;;;;;;;3.30;2.13;;;;;;;17.60;64.39;98043.78;4136760;28;20205;-61
2022/06/22 04:33:55;;;;;;;3.10;2.03;;;;;;;17.51;64.43;98059.44;4134780;28;20209;-61
2022/06/22 04:36:00;;;;;;;4.03;2.00;;;;;;;17.60;64.02;98063.94;4120643;28;20266;-61
2022/06/22 04:38:20;;;;;;;1.85;1.40;;;;;;;17.68;63.97;98073.50;4119226;28;20266;-61
2022/06/22 04:40:35;;;;;;;2.42;1.92;;;;;;;17.75;63.80;98063.66;4133902;28;20280;-61
2022/06/22 04:42:36;;;;;;;3.33;2.08;;;;;;;17.79;63.85;98063.88;4137251;28;20267;-61
2022/06/22 04:44:48;;;;;;;1.73;1.63;;;;;;;17.84;63.86;98055.47;4138322;28;20236;-61
2022/06/22 04:46:52;;;;;;;2.63;2.15;;;;;;;17.83;63.95;98064.88;4123787;28;20201;-61
2022/06/22 04:48:56;;;;;;;3.60;2.17;;;;;;;17.88;63.66;98059.25;4118284;28;20225;-61
2022/06/22 04:51:01;;;;;;;4.80;1.95;;;;;;;17.94;63.69;98072.69;4137542;28;20581;-61
2022/06/22 04:53:03;;;;;;;3.58;1.58;;;;;;;17.92;63.57;98063.84;4137271;28;20206;-61
2022/06/22 04:55:06;;;;;;;3.45;1.73;;;;;;;17.96;63.58;98069.59;4120564;28;20234;-61
2022/06/22 04:57:23;;;;;;;2.75;2.25;;;;;;;17.99;63.41;98067.03;4121684;28;20202;-61
2022/06/22 04:59:25;;;;;;;2.10;1.90;;;;;;;18.06;63.32;98064.66;4121906;28;20198;-61
2022/06/22 05:01:28;;;;;;;3.13;1.60;;;;;;;18.07;63.20;98071.88;4118438;28;20681;-61
2022/06/22 05:03:30;;;;;;;2.42;1.55;;;;;;;18.09;63.53;98068.78;4134629;28;20267;-61
2022/06/22 05:05:34;;;;;;;4.45;1.95;;;;;;;18.00;63.12;98070.63;4135453;28;20287;-60
2022/06/22 05:07:40;;;;;;;1.70;1.60;;;;;;;18.03;63.07;98079.16;4122078;28;20593;-61
2022/06/22 05:10:12;;;;;;;2.42;1.23;;;;;;;18.08;62.90;98078.22;4123404;28;20243;-61
2022/06/22 05:12:18;;;;;;;3.10;1.70;;;;;;;18.12;63.20;98077.28;4136974;28;20699;-61
2022/06/22 05:14:27;;;;;;;1.50;1.40;;;;;;;18.14;63.68;98085.28;4102440;28;20257;-61
2022/06/22 05:16:32;;;;;;;3.53;1.77;;;;;;;18.18;63.48;98086.31;4136902;28;20204;-61
2022/06/22 05:18:36;;;;;;;2.03;1.67;;;;;;;18.10;63.53;98092.56;4118631;28;20664;-61
2022/06/22 05:21:04;;;;;;;2.13;1.55;;;;;;;17.95;63.46;98090.13;4106972;28;20203;-61
2022/06/22 05:23:07;;;;;;;2.05;1.75;;;;;;;18.05;63.50;98089.91;4105496;28;20198;-61
2022/06/22 05:25:11;;;;;;;4.60;2.17;;;;;;;17.98;63.95;98095.06;4121196;28;20264;-61
2022/06/22 05:27:18;;;;;;;2.42;1.85;;;;;;;17.97;64.04;98087.84;4124641;28;20308;-61
2022/06/22 05:29:24;;;;;;;2.92;2.00;;;;;;;18.00;63.60;98093.63;4139477;28;20218;-61
2022/06/22 05:31:31;;;;;;;10.30;2.60;;;;;;;18.11;64.17;98091.47;4123492;28;20206;-61
2022/06/22 05:33:35;;;;;;;3.38;2.00;;;;;;;18.18;63.77;98089.09;4132504;28;20214;-61
2022/06/22 05:35:40;;;;;;;2.47;1.95;;;;;;;18.24;63.80;98093.41;4126730;28;20226;-61
2022/06/22 05:37:50;;;;;;;2.10;1.90;;;;;;;18.34;64.25;98098.75;4121689;28;20217;-62
2022/06/22 05:39:52;;;;;;;3.15;2.10;;;;;;;18.43;64.40;98091.31;4132138;28;20197;-61
2022/06/22 05:41:54;;;;;;;2.20;2.00;;;;;;;18.48;64.23;98088.44;4139453;28;20253;-61
2022/06/22 05:44:04;;;;;;;3.05;1.88;;;;;;;18.50;64.30;98086.19;4128543;28;20198;-62
2022/06/22 05:46:06;;;;;;;2.35;1.85;;;;;;;18.64;63.47;98087.00;4141962;28;20246;-62
2022/06/22 05:48:13;;;;;;;5.35;1.80;;;;;;;18.68;63.38;98085.22;4134148;28;20210;-61
2022/06/22 05:50:43;;;;;;;2.83;1.90;;;;;;;18.69;63.82;98076.59;4130850;28;21224;-62
2022/06/22 05:52:48;;;;;;;3.85;1.77;;;;;;;18.65;62.32;98088.63;4124571;28;20212;-61
2022/06/22 05:54:55;;;;;;;2.10;1.67;;;;;;;18.57;61.70;98081.84;4128838;28;20596;-61
2022/06/22 05:57:16;;;;;;;2.55;1.75;;;;;;;18.48;61.35;98088.44;4125002;28;20210;-61
2022/06/22 05:59:42;;;;;;;3.28;1.60;;;;;;;18.48;61.45;98083.75;4108663;28;20222;-62
2022/06/22 06:02:10;;;;;;;1.98;1.65;;;;;;;18.56;61.86;98084.94;4134471;28;20691;-61
2022/06/22 06:04:23;;;;;;;1.85;1.45;;;;;;;18.75;62.19;98086.44;4124561;28;20206;-62
2022/06/22 06:06:36;;;;;;;2.40;1.60;;;;;;;18.88;62.17;98084.72;4138900;28;20214;-61
2022/06/22 06:08:47;;;;;;;3.47;1.65;;;;;;;18.86;61.54;98084.25;4124504;28;20211;-61
2022/06/22 06:10:49;;;;;;;1.73;1.60;;;;;;;18.93;61.27;98095.72;4140584;28;20225;-61
2022/06/22 06:13:00;;;;;;;3.58;2.10;;;;;;;18.95;61.22;98090.66;4141953;28;20748;-61
2022/06/22 06:15:04;;;;;;;3.63;2.30;;;;;;;18.90;61.38;98088.84;4137412;28;20221;-62
2022/06/22 06:17:11;;;;;;;8.00;2.20;;;;;;;18.96;61.86;98078.44;4123228;28;20241;-61
2022/06/22 06:19:18;;;;;;;3.00;2.08;;;;;;;18.98;61.50;98073.41;4121908;28;20194;-61
2022/06/22 06:21:22;;;;;;;2.08;1.48;;;;;;;18.97;60.77;98082.88;4124113;28;20214;-61
2022/06/22 06:23:34;;;;;;;2.53;1.83;;;;;;;19.12;62.46;98076.94;4124060;28;20209;-61
2022/06/22 06:28:05;;;;;;;3.20;1.50;;;;;;;19.38;60.74;98086.28;4138865;28;20636;-61
2022/06/22 06:30:48;;;;;;;2.42;1.80;;;;;;;19.57;60.26;98081.34;4119541;28;20288;-61
2022/06/22 06:32:57;;;;;;;3.00;1.17;;;;;;;19.66;60.64;98084.97;4122985;28;20309;-61
2022/06/22 06:35:17;;;;;;;2.17;1.92;;;;;;;19.74;60.77;98089.75;4119684;28;20299;-61
2022/06/22 06:37:35;;;;;;;3.20;1.80;;;;;;;19.77;60.80;98100.22;4142444;28;20292;-61
2022/06/22 06:39:41;;;;;;;2.28;1.70;;;;;;;19.72;61.69;98092.81;4129452;28;20252;-61
2022/06/22 06:41:46;;;;;;;1.50;1.30;;;;;;;19.75;60.65;98091.38;4122464;28;20273;-61
2022/06/22 06:43:54;;;;;;;2.83;1.63;;;;;;;19.71;59.92;98085.66;4141726;28;20292;-61
2022/06/22 06:45:57;;;;;;;2.85;1.75;;;;;;;19.72;60.15;98086.47;4129807;28;20233;-61
2022/06/22 06:48:02;;;;;;;3.47;1.83;;;;;;;19.79;61.26;98075.72;4122369;28;20213;-61
2022/06/22 06:50:13;;;;;;;1.73;1.30;;;;;;;19.86;60.40;98076.09;4124348;28;20243;-61
2022/06/22 06:52:27;;;;;;;1.20;1.10;;;;;;;19.73;57.45;98068.66;4122119;28;20213;-61
2022/06/22 06:54:31;;;;;;;3.25;1.27;;;;;;;19.78;57.46;98065.75;4120846;28;20230;-61
2022/06/22 06:56:50;;;;;;;0.93;0.88;;;;;;;19.82;56.85;98067.56;4136115;28;20217;-61
2022/06/22 06:58:54;;;;;;;1.65;1.30;;;;;;;20.00;57.93;98077.63;4140211;28;20208;-61
2022/06/22 07:00:56;;;;;;;5.55;1.52;;;;;;;20.19;57.20;98077.38;4107986;28;20241;-61
2022/06/22 07:02:58;;;;;;;4.82;1.60;;;;;;;20.35;57.07;98084.09;4138815;28;20620;-61
2022/06/22 07:05:02;;;;;;;2.80;1.48;;;;;;;20.43;57.28;98088.88;4138775;28;20291;-61
2022/06/22 07:07:27;;;;;;;1.65;1.33;;;;;;;20.20;56.63;98085.41;4120884;28;20216;-61
2022/06/22 07:09:31;;;;;;;1.40;1.10;;;;;;;20.12;56.46;98088.16;4099060;28;20239;-61
2022/06/22 07:11:40;;;;;;;2.05;1.30;;;;;;;20.03;56.79;98087.25;4128719;28;20205;-61
2022/06/22 07:13:51;;;;;;;2.28;1.50;;;;;;;20.24;57.44;98105.03;4136538;28;20209;-61
2022/06/22 07:15:56;;;;;;;2.97;1.55;;;;;;;20.38;56.85;98114.06;4117747;28;20609;-61
2022/06/22 07:18:00;;;;;;;5.50;1.30;;;;;;;20.37;56.79;98126.31;4116717;28;20669;-61
2022/06/22 07:20:16;;;;;;;3.45;1.60;;;;;;;20.39;57.18;98119.28;4136729;28;20607;-61
2022/06/22 07:22:40;;;;;;;2.10;1.60;;;;;;;20.37;57.02;98115.19;4112477;28;20203;-61
2022/06/22 07:25:09;;;;;;;1.70;1.33;;;;;;;20.32;56.13;98112.56;4140805;28;20288;-61
2022/06/22 07:27:29;;;;;;;10.38;2.28;;;;;;;20.26;56.14;98113.84;4137867;28;20620;-62
2022/06/22 07:29:40;;;;;;;5.57;1.77;;;;;;;20.39;56.37;98107.34;4120350;28;20215;-61
2022/06/22 07:31:47;;;;;;;1.92;1.55;;;;;;;20.51;55.94;98104.78;4136972;28;20619;-61
2022/06/22 07:33:54;;;;;;;2.22;1.63;;;;;;;20.66;56.19;98107.06;4141179;28;20267;-62
2022/06/22 07:36:03;;;;;;;3.58;1.35;;;;;;;20.71;56.00;98107.72;4122809;28;20231;-61
2022/06/22 07:38:20;;;;;;;5.75;1.67;;;;;;;20.70;54.50;98092.19;4140011;28;20214;-62
2022/06/22 07:40:25;;;;;;;2.63;1.85;;;;;;;20.77;55.04;98100.06;4139018;28;20750;-61
2022/06/22 07:42:31;;;;;;;6.15;1.45;;;;;;;20.90;55.10;98093.56;4105412;28;20210;-61
2022/06/22 07:44:34;;;;;;;2.92;1.67;;;;;;;20.99;54.62;98089.59;4139687;28;20233;-61
2022/06/22 07:46:54;;;;;;;4.25;1.70;;;;;;;21.02;54.44;98097.31;4125763;28;20209;-61
2022/06/22 07:49:11;;;;;;;3.50;1.38;;;;;;;21.17;53.97;98101.56;4138442;28;20213;-63
2022/06/22 07:51:19;;;;;;;2.08;1.77;;;;;;;21.31;53.97;98096.66;4129741;28;20202;-61
2022/06/22 07:53:42;;;;;;;1.52;1.17;;;;;;;21.27;54.11;98104.84;4131508;28;20208;-62
2022/06/22 07:55:51;;;;;;;7.32;1.20;;;;;;;21.38;54.45;98092.19;4132720;28;20943;-62
2022/06/22 07:58:14;;;;;;;5.72;2.22;;;;;;;21.47;52.88;98090.25;4132809;28;20208;-61
2022/06/22 08:00:19;;;;;;;4.75;1.60;;;;;;;21.45;52.23;98086.13;4141348;28;20691;-61
2022/06/22 08:02:24;;;;;;;4.05;1.77;;;;;;;21.47;52.04;98089.41;4122417;28;20581;-61
2022/06/22 08:04:34;;;;;;;2.13;1.45;;;;;;;21.62;53.76;98086.91;4123871;28;20272;-61
2022/06/22 08:06:43;;;;;;;2.50;1.50;;;;;;;21.63;51.47;98087.75;4139082;28;20220;-61
2022/06/22 08:08:52;;;;;;;13.70;1.35;;;;;;;21.77;52.76;98094.75;4127970;28;20213;-61
2022/06/22 08:11:03;;;;;;;1.95;1.08;;;;;;;21.84;51.34;98088.69;4140066;28;20231;-61
2022/06/22 08:13:16;;;;;;;1.92;1.40;;;;;;;21.83;52.42;98087.06;4120225;28;20202;-61
2022/06/22 08:15:20;;;;;;;1.73;1.10;;;;;;;21.89;51.73;98088.50;4108489;28;20341;-61
2022/06/22 08:17:31;;;;;;;2.40;1.42;;;;;;;21.99;52.05;98093.72;4109172;28;20242;-62
2022/06/22 08:19:33;;;;;;;10.68;2.65;;;;;;;22.17;52.91;98095.28;4138474;28;20248;-61
2022/06/22 08:21:41;;;;;;;7.10;1.52;;;;;;;22.15;50.58;98092.00;4122349;28;20213;-61
2022/06/22 08:23:43;;;;;;;3.85;1.23;;;;;;;22.15;50.74;98089.19;4117412;28;20201;-61
2022/06/22 08:25:48;;;;;;;1.67;1.35;;;;;;;22.23;50.50;98086.38;4101203;28;20229;-62
2022/06/22 08:27:51;;;;;;;2.40;1.00;;;;;;;22.16;50.07;98091.66;4123425;28;20214;-61
2022/06/22 08:29:53;;;;;;;2.13;1.20;;;;;;;22.21;49.90;98082.28;4122871;28;20256;-61
2022/06/22 08:32:05;;;;;;;6.07;1.17;;;;;;;22.16;50.03;98086.09;4134420;28;20213;-62
2022/06/22 08:34:32;;;;;;;2.05;1.10;;;;;;;22.40;49.70;98086.28;4120026;28;20256;-61
2022/06/22 08:36:38;;;;;;;3.22;1.00;;;;;;;22.44;49.91;98094.84;4120306;28;20245;-61
2022/06/22 08:38:46;;;;;;;2.22;0.90;;;;;;;22.51;50.58;98075.59;4117619;28;20577;-61
2022/06/22 08:40:53;;;;;;;2.60;0.90;;;;;;;22.53;50.56;98078.84;4121021;28;20201;-61
2022/06/22 08:42:54;;;;;;;1.85;0.95;;;;;;;22.43;49.26;98070.91;4117232;28;20202;-61
2022/06/22 08:45:21;;;;;;;2.08;1.20;;;;;;;22.38;49.31;98083.00;4116827;28;20912;-61
2022/06/22 08:47:34;;;;;;;9.63;1.50;;;;;;;22.61;49.42;98075.19;4138127;28;20201;-61
2022/06/22 08:49:42;;;;;;;3.17;1.02;;;;;;;22.57;48.82;98069.47;4117467;28;20256;-61
2022/06/22 08:52:13;;;;;;;5.20;1.10;;;;;;;22.62;48.79;98076.81;4116026;28;20261;-61
2022/06/22 08:54:23;;;;;;;4.13;0.90;;;;;;;22.54;49.33;98074.91;4076559;29;20247;-61
2022/06/22 08:56:43;;;;;;;0.80;0.80;;;;;;;22.52;48.51;98083.59;4125943;28;20208;-61
2022/06/22 08:58:56;;;;;;;1.73;1.40;;;;;;;22.51;48.84;98070.03;4136585;28;20239;-60
2022/06/22 09:01:12;;;;;;;1.35;1.02;;;;;;;22.37;47.36;98063.84;4136273;28;20280;-61
2022/06/22 09:03:39;;;;;;;1.27;0.95;;;;;;;22.53;47.53;98056.53;4128417;28;20793;-62
2022/06/22 09:05:53;;;;;;;5.60;1.23;;;;;;;22.63;48.94;98056.16;4138388;28;20228;-60
2022/06/22 09:08:29;;;;;;;2.80;1.30;;;;;;;22.68;48.37;98061.50;4121006;28;20209;-60
2022/06/22 09:10:40;;;;;;;4.28;1.27;;;;;;;22.69;47.99;98057.56;4133059;28;20282;-60
2022/06/22 09:13:05;;;;;;;1.60;1.05;;;;;;;22.75;47.42;98059.00;4133652;28;20236;-60
2022/06/22 09:15:23;;;;;;;1.85;1.00;;;;;;;22.77;48.89;98063.09;4122421;28;20265;-60
2022/06/22 09:17:49;;;;;;;7.47;1.20;;;;;;;22.91;48.10;98068.41;4136096;28;20208;-60
2022/06/22 09:19:57;;;;;;;5.40;1.27;;;;;;;22.92;47.33;98059.69;4123371;28;20615;-60
2022/06/22 09:22:14;;;;;;;5.80;1.52;;;;;;;23.01;48.75;98068.81;4138281;28;20216;-60
2022/06/22 09:24:55;;;;;;;13.65;1.70;;;;;;;23.10;48.02;98065.97;4122971;28;20202;-60
2022/06/22 09:27:08;;;;;;;2.67;1.40;;;;;;;23.13;47.13;98076.44;4122381;28;20204;-60
2022/06/22 09:29:21;;;;;;;1.30;0.95;;;;;;;22.95;47.65;98077.72;4136592;28;20204;-60
2022/06/22 09:31:37;;;;;;;1.98;1.40;;;;;;;22.95;48.13;98075.75;4119616;28;20283;-61
2022/06/22 09:33:59;;;;;;;5.25;1.30;;;;;;;23.08;48.39;98079.41;4137270;28;20251;-61
2022/06/22 09:36:08;;;;;;;3.42;0.90;;;;;;;23.06;47.53;98085.38;4138226;28;20276;-61
2022/06/22 09:38:36;;;;;;;6.70;1.70;;;;;;;23.06;47.95;98087.31;4123002;28;20212;-61
2022/06/22 09:40:59;;;;;;;1.38;1.00;;;;;;;23.03;46.85;98088.03;4115142;28;20260;-61
2022/06/22 09:43:33;;;;;;;2.05;1.60;;;;;;;23.08;47.28;98096.16;4119121;28;20214;-60
2022/06/22 09:45:42;;;;;;;2.50;1.15;;;;;;;23.02;48.35;98097.53;4136626;28;20225;-62
2022/06/22 09:48:05;;;;;;;6.32;1.88;;;;;;;23.07;46.38;98091.75;4135655;28;20265;-61
2022/06/22 09:50:19;;;;;;;6.68;1.92;;;;;;;23.16;45.38;98092.53;4122556;28;20559;-61
2022/06/22 09:52:49;;;;;;;1.85;1.20;;;;;;;23.13;46.36;98090.38;4133420;28;20252;-61
2022/06/22 09:57:29;;;;;;;1.70;0.88;;;;;;;23.39;45.67;98079.84;4121769;28;20281;-60
2022/06/22 09:59:59;;;;;;;16.15;1.80;;;;;;;23.24;45.66;98084.06;4125024;28;20284;-61
2022/06/22 10:02:26;;;;;;;2.30;1.33;;;;;;;23.18;46.48;98084.63;4124233;28;20252;-60
2022/06/22 10:04:53;;;;;;;4.20;1.50;;;;;;;23.20;46.68;98087.88;4125873;28;20230;-60
2022/06/22 10:07:16;;;;;;;2.85;1.10;;;;;;;23.38;46.63;98089.38;4125810;28;20786;-60
2022/06/22 10:09:24;;;;;;;3.88;1.45;;;;;;;23.45;46.47;98101.59;4131147;28;20200;-61
2022/06/22 10:11:51;;;;;;;3.00;1.45;;;;;;;23.28;46.32;98095.38;4121339;28;20232;-61
2022/06/22 10:14:09;;;;;;;8.38;1.65;;;;;;;23.23;46.91;98103.97;4123342;28;20214;-60
2022/06/22 10:16:28;;;;;;;5.25;1.27;;;;;;;23.34;47.23;98096.78;4121703;28;20314;-60
2022/06/22 10:18:58;;;;;;;1.90;1.17;;;;;;;23.58;47.81;98096.91;4116185;28;20246;-61
2022/06/22 10:21:18;;;;;;;5.30;1.58;;;;;;;23.67;47.14;98104.81;4118849;28;20209;-60
2022/06/22 10:23:45;;;;;;;3.10;1.40;;;;;;;23.68;46.84;98100.06;4136562;28;20213;-61
2022/06/22 10:25:54;;;;;;;2.22;1.40;;;;;;;23.65;46.98;98094.34;4137044;28;20600;-61
2022/06/22 10:28:08;;;;;;;10.50;1.27;;;;;;;23.71;47.53;98099.38;4119835;28;20683;-60
2022/06/22 10:30:20;;;;;;;1.70;1.42;;;;;;;23.49;47.45;98107.31;4117826;28;20618;-60
2022/06/22 10:32:31;;;;;;;3.00;1.30;;;;;;;23.10;47.58;98110.63;4138621;28;20232;-60